SCDA 231200Z 24004KT 9999 OVC032 18/12 Q1016